Details From KFLG - Flagstaff Pulliam
To KCMR - H A Clark Mem Fld
Flight Number -
Tags Decoded
Created
Modified
Stats Distance 39 nm / 73 km
Max Altitude 0 ft / 0 m
Waypoints 2
Social Downloads 1
Likes 0
Share VATSIM

Download

Looking for another format? Having issues loading an existing format? Contact us
Advertisement - Login to hide

Notes

Decoded

Route

KFLG KACEE

ID Type Via Altitude Latitude Longitude Leg Dist Tot Dist Heading (true) Name
O KFLG APT - 0 ft / 0 m 35.13122˚ -111.67892˚ - 0 nm - -
O KACEE FIX - 0 ft / 0 m 35.34668˚ -112.43907˚ 39 nm 39 nm 289° / 289° -

Altitude Profile

Advertisement - Login to hide

KFLG

Details ICAO KFLG (FLG)
Name Flagstaff Pulliam
Region United States
Timezone America/Phoenix (UTC-7.0)
Stats Elevation 7,011 ft / 2,137 m (AMSL)
Location 35.138455° -111.671215°
Runways 1
Magnetic Variation 10.464° E

METAR

KFLG 141657Z 07014G27KT 10SM CLR 03/M08 A3017 RMK AO2 PK WND 06042/1603 SLP202 T00281078

Decode

TAF

TAF AMD KFLG 141622Z 1416/1512 06025G35KT P6SM SKC FM150600 06014G22KT P6SM SKC

Decode

Departure Runways

ID Width Length Bearing (true) Bearing (mag) Surface Threshold Offset Overrun Length
03 150 ft / 46 m 7,003 ft / 2,135 m 41.03° 30.57° Asphalt 0 ft / 0 m 0 ft / 0 m
21 150 ft / 46 m 7,003 ft / 2,135 m 221.04° 210.58° Asphalt 0 ft / 0 m 0 ft / 0 m

KCMR

Details ICAO KCMR
Name H A CLARK MEM FLD
Region United States
Timezone America/Phoenix (UTC-7.0)
Stats Elevation 6,678 ft / 2,035 m (AMSL)
Location 35.302233° -112.194058°
Runways 1
Magnetic Variation 10.657° E

METAR

KCMR 141735Z AUTO 05023G31KT 9SM CLR 05/M07 A3016 RMK AO2

Decode

TAF

Not found

Destination Runways

ID Width Length Bearing (true) Bearing (mag) Surface Threshold Offset Overrun Length
18 100 ft / 30 m 6,007 ft / 1,831 m 192.20° 181.54° Asphalt 0 ft / 0 m 0 ft / 0 m
36 100 ft / 30 m 6,007 ft / 1,831 m 12.20° 1.54° Asphalt 0 ft / 0 m 0 ft / 0 m